Time;durP1;ratioP1;P1;durP2;ratioP2;P2;SDS_P1;SDS_P2;PMS_P1;PMS_P2;Temp;Humidity;BMP_temperature;BMP_pressure;BME280_temperature;BME280_humidity;BME280_pressure;Samples;Min_cycle;Max_cycle;Signal;HPM_P1;HPM_P2
2022/06/11 00:01:23;;;;;;;22.93;16.10;;;;;;;18.63;100.00;62789.91;5092755;28;20195;-76
2022/06/11 00:03:53;;;;;;;23.97;16.53;;;;;;;18.46;100.00;62774.13;5092303;28;20208;-75
2022/06/11 00:06:21;;;;;;;22.57;16.70;;;;;;;18.32;100.00;62759.53;5092355;28;20671;-76
2022/06/11 00:08:49;;;;;;;22.17;15.50;;;;;;;18.60;100.00;62788.69;5092403;28;20199;-76
2022/06/11 00:11:17;;;;;;;22.13;16.87;;;;;;;18.60;100.00;62789.22;5092146;28;20251;-77
2022/06/11 00:13:44;;;;;;;23.13;17.33;;;;;;;18.53;100.00;62786.84;5092508;28;20200;-76
2022/06/11 00:16:15;;;;;;;21.43;16.30;;;;;;;18.53;100.00;62776.53;5092320;28;20200;-74
2022/06/11 00:18:43;;;;;;;25.07;17.47;;;;;;;18.45;100.00;62773.03;5092366;28;20203;-76
2022/06/11 00:21:10;;;;;;;25.30;17.23;;;;;;;18.27;100.00;62753.59;5092311;28;20204;-76
2022/06/11 00:23:38;;;;;;;25.33;17.97;;;;;;;18.39;100.00;62766.56;5096828;28;20210;-76
2022/06/11 00:26:06;;;;;;;26.17;16.13;;;;;;;18.39;100.00;62771.72;5091543;28;20203;-76
2022/06/11 00:28:33;;;;;;;19.33;15.73;;;;;;;18.52;100.00;62778.56;5091976;28;20218;-77
2022/06/11 00:31:00;;;;;;;18.33;13.67;;;;;;;18.42;100.00;62767.19;5083483;28;20231;-76
2022/06/11 00:33:30;;;;;;;18.67;12.70;;;;;;;18.30;100.00;62751.66;5088869;28;20199;-77
2022/06/11 00:35:58;;;;;;;15.47;12.17;;;;;;;17.63;100.00;62685.63;5090874;28;20231;-76
2022/06/11 00:38:25;;;;;;;14.93;12.40;;;;;;;17.77;100.00;62699.66;5091928;28;20203;-75
2022/06/11 00:40:54;;;;;;;16.67;13.40;;;;;;;18.14;100.00;62739.56;5090742;28;20604;-76
2022/06/11 00:43:24;;;;;;;13.33;11.03;;;;;;;18.33;100.00;62760.06;5091678;28;20215;-76
2022/06/11 00:45:59;;;;;;;13.27;10.97;;;;;;;18.16;100.00;62741.72;5092726;28;20199;-77
2022/06/11 00:48:32;;;;;;;18.40;11.73;;;;;;;17.97;100.00;62716.06;5090788;28;20195;-74
2022/06/11 00:51:03;;;;;;;14.03;11.20;;;;;;;18.22;100.00;62748.72;5091678;28;20223;-75
2022/06/11 00:53:37;;;;;;;14.57;12.00;;;;;;;18.33;100.00;62762.66;5091687;28;20264;-75
2022/06/11 00:56:07;;;;;;;15.80;11.97;;;;;;;18.27;100.00;62751.00;5091825;28;20249;-76
2022/06/11 00:58:37;;;;;;;14.97;12.37;;;;;;;17.99;100.00;62723.38;5077925;28;20690;-76
2022/06/11 01:01:06;;;;;;;15.37;11.67;;;;;;;18.03;100.00;62728.22;5091491;28;20618;-75
2022/06/11 01:03:38;;;;;;;15.67;11.23;;;;;;;17.86;100.00;62704.19;5093877;28;20237;-78
2022/06/11 01:06:15;;;;;;;14.67;10.90;;;;;;;17.90;100.00;62711.63;5100046;28;20206;-75
2022/06/11 01:08:54;;;;;;;16.90;11.83;;;;;;;18.01;100.00;62722.97;5092012;28;20198;-75
2022/06/11 01:11:50;;;;;;;13.50;11.37;;;;;;;17.91;100.00;62714.75;5091854;28;20242;-75
2022/06/11 01:14:32;;;;;;;13.47;11.47;;;;;;;18.15;100.00;62740.66;5044179;28;20206;-76
2022/06/11 01:17:10;;;;;;;15.20;11.17;;;;;;;18.01;100.00;62722.97;5091812;28;20226;-75
2022/06/11 01:20:03;;;;;;;15.00;11.17;;;;;;;18.20;100.00;62744.00;5092298;28;20252;-76
2022/06/11 01:22:52;;;;;;;14.20;11.43;;;;;;;18.29;100.00;62753.19;5077443;28;20207;-74
2022/06/11 01:25:30;;;;;;;13.77;11.03;;;;;;;18.26;100.00;62753.06;5091263;28;20205;-75
2022/06/11 01:28:15;;;;;;;15.47;10.67;;;;;;;18.22;100.00;62748.72;5091859;28;20223;-75
2022/06/11 01:30:50;;;;;;;14.77;11.53;;;;;;;18.26;100.00;62749.94;5091563;28;20215;-78
2022/06/11 01:33:24;;;;;;;14.23;11.20;;;;;;;17.97;100.00;62721.75;5091360;28;20211;-76
2022/06/11 01:36:01;;;;;;;14.73;11.50;;;;;;;17.92;100.00;62715.81;5090995;28;20210;-75
2022/06/11 01:38:34;;;;;;;13.07;10.77;;;;;;;17.77;100.00;62694.50;5095485;28;20210;-75
2022/06/11 01:41:23;;;;;;;13.80;10.83;;;;;;;17.69;100.00;62688.97;5094380;28;20206;-75
2022/06/11 01:43:53;;;;;;;17.00;11.67;;;;;;;18.11;100.00;62733.75;5094959;28;20219;-75
2022/06/11 01:49:28;;;;;;;12.63;10.80;;;;;;;17.82;100.00;62707.59;5094601;28;20211;-77
2022/06/11 01:52:04;;;;;;;14.50;11.17;;;;;;;18.26;100.00;62749.94;5094888;28;20255;-76
2022/06/11 01:54:37;;;;;;;14.77;12.03;;;;;;;18.30;100.00;62754.25;5094923;28;20203;-77
2022/06/11 01:57:31;;;;;;;15.23;11.57;;;;;;;18.31;100.00;62757.91;5095223;28;20235;-76
2022/06/11 02:00:18;;;;;;;13.63;11.03;;;;;;;18.24;100.00;62747.78;5094866;28;20603;-76
2022/06/11 02:03:03;;;;;;;14.03;11.40;;;;;;;18.32;100.00;62754.38;5091935;28;20658;-77
2022/06/11 02:05:44;;;;;;;14.47;11.87;;;;;;;18.12;100.00;62734.81;5095171;28;20196;-75
2022/06/11 02:08:22;;;;;;;13.70;10.53;;;;;;;18.38;100.00;62765.47;5080374;28;20204;-76
2022/06/11 02:10:57;;;;;;;11.87;9.80;;;;;;;18.36;100.00;62763.31;5076412;28;20223;-75
2022/06/11 02:13:30;;;;;;;13.47;10.53;;;;;;;18.27;100.00;62753.59;5094812;28;20865;-76
2022/06/11 02:16:05;;;;;;;13.23;10.73;;;;;;;18.30;100.00;62752.22;5094598;28;20298;-76
2022/06/11 02:18:38;;;;;;;14.40;10.80;;;;;;;18.32;100.00;62756.41;5094966;28;20210;-78
2022/06/11 02:21:11;;;;;;;13.73;11.03;;;;;;;18.37;100.00;62767.50;5094380;28;20294;-77
2022/06/11 02:23:40;;;;;;;13.97;10.70;;;;;;;18.29;100.00;62755.75;5094066;28;20199;-76
2022/06/11 02:26:12;;;;;;;11.90;10.63;;;;;;;18.52;100.00;62780.59;5095723;28;20195;-75
2022/06/11 02:28:43;;;;;;;15.03;12.20;;;;;;;18.16;100.00;62746.88;5095754;28;20307;-77
2022/06/11 02:31:15;;;;;;;16.60;12.57;;;;;;;18.21;100.00;62744.53;5094310;28;20223;-76
2022/06/11 02:33:46;;;;;;;15.37;11.40;;;;;;;18.48;100.00;62776.28;5075896;28;20204;-75
2022/06/11 02:36:19;;;;;;;14.73;11.60;;;;;;;18.41;100.00;62771.28;5094193;28;20223;-76
2022/06/11 02:38:46;;;;;;;15.10;12.10;;;;;;;18.32;100.00;62758.97;5094461;28;20207;-76
2022/06/11 02:41:18;;;;;;;13.33;11.27;;;;;;;18.38;100.00;62760.84;5093003;28;20592;-76
2022/06/11 02:43:45;;;;;;;15.77;12.10;;;;;;;18.27;100.00;62753.59;5094260;28;20671;-76
2022/06/11 02:48:55;;;;;;;15.07;12.50;;;;;;;17.93;100.00;62711.75;5083922;28;20203;-75
2022/06/11 02:51:24;;;;;;;14.37;11.63;;;;;;;17.50;100.00;62671.06;5094098;28;20602;-75
2022/06/11 02:53:52;;;;;;;14.43;12.07;;;;;;;18.11;100.00;62733.75;5093935;28;20211;-75
2022/06/11 02:56:19;;;;;;;15.43;11.73;;;;;;;18.08;100.00;62733.09;5093506;28;20200;-75
2022/06/11 02:58:47;;;;;;;16.37;12.00;;;;;;;17.60;100.00;62679.81;5093739;28;20261;-76
2022/06/11 03:01:13;;;;;;;14.43;12.00;;;;;;;18.14;100.00;62742.13;5093716;28;20204;-74
2022/06/11 03:03:41;;;;;;;15.97;11.13;;;;;;;18.25;100.00;62751.44;5093621;28;20760;-77
2022/06/11 03:06:11;;;;;;;13.37;11.10;;;;;;;18.29;100.00;62753.69;5093313;28;20200;-75
2022/06/11 03:08:38;;;;;;;15.67;11.67;;;;;;;17.86;100.00;62709.34;5093452;28;20645;-76
2022/06/11 03:11:05;;;;;;;13.67;11.50;;;;;;;18.27;100.00;62754.13;5093375;28;20585;-75
2022/06/11 03:13:32;;;;;;;15.03;12.57;;;;;;;18.40;100.00;62767.63;5093193;28;20667;-76
2022/06/11 03:15:59;;;;;;;14.10;11.13;;;;;;;18.42;100.00;62769.78;5093440;28;20208;-76
2022/06/11 03:18:27;;;;;;;14.17;11.30;;;;;;;18.25;100.00;62746.81;5093186;28;20195;-76
2022/06/11 03:20:56;;;;;;;14.67;11.30;;;;;;;18.36;100.00;62760.72;5075468;28;20208;-78
2022/06/11 03:23:25;;;;;;;12.17;10.07;;;;;;;18.46;100.00;62774.66;5088710;28;20606;-77
2022/06/11 03:25:52;;;;;;;11.10;9.70;;;;;;;18.30;100.00;62751.66;5093324;28;20660;-77
2022/06/11 03:28:26;;;;;;;14.97;9.83;;;;;;;18.07;100.00;62732.00;5093308;28;20211;-77
2022/06/11 03:30:55;;;;;;;9.80;8.57;;;;;;;18.38;100.00;62765.47;5092900;28;20257;-77
2022/06/11 03:33:26;;;;;;;9.97;8.97;;;;;;;18.27;100.00;62753.59;5093040;28;20674;-78
2022/06/11 03:35:53;;;;;;;11.63;10.10;;;;;;;18.32;100.00;62758.97;5092677;28;20210;-76
2022/06/11 03:38:21;;;;;;;10.20;9.10;;;;;;;18.34;100.00;62761.16;5079859;28;20214;-77
2022/06/11 03:40:50;;;;;;;12.27;8.93;;;;;;;18.35;100.00;62759.66;5089577;28;20214;-75
2022/06/11 03:43:17;;;;;;;10.60;8.80;;;;;;;17.44;100.00;62662.53;5080557;28;20212;-77
2022/06/11 03:45:44;;;;;;;9.87;8.87;;;;;;;18.30;100.00;62756.81;5092572;28;20199;-77
2022/06/11 03:48:12;;;;;;;10.13;8.20;;;;;;;18.24;100.00;62745.72;5092572;28;20666;-76
2022/06/11 03:50:41;;;;;;;10.97;9.43;;;;;;;18.21;100.00;62744.53;5092594;28;20210;-77
2022/06/11 03:53:10;;;;;;;12.10;9.43;;;;;;;17.88;100.00;62714.06;5092486;28;20658;-77
2022/06/11 03:55:39;;;;;;;10.80;9.07;;;;;;;18.12;100.00;62737.94;5093230;28;20210;-75
2022/06/11 03:58:09;;;;;;;10.07;9.03;;;;;;;18.25;100.00;62751.44;5092982;28;20215;-77
2022/06/11 04:03:22;;;;;;;10.80;9.67;;;;;;;18.44;100.00;62766.78;5092767;28;20222;-76
2022/06/11 04:05:51;;;;;;;11.20;9.53;;;;;;;18.46;100.00;62776.69;5092384;28;20294;-76
2022/06/11 04:08:18;;;;;;;12.73;9.80;;;;;;;18.47;100.00;62775.22;5060427;28;20203;-75
2022/06/11 04:10:46;;;;;;;12.43;10.03;;;;;;;18.52;100.00;62780.59;5092186;28;20666;-76
2022/06/11 04:13:15;;;;;;;13.00;10.90;;;;;;;18.47;100.00;62775.22;5092111;28;20200;-76
2022/06/11 04:15:43;;;;;;;12.57;10.90;;;;;;;18.44;100.00;62771.97;5092505;28;20204;-75
2022/06/11 04:18:31;;;;;;;16.27;12.03;;;;;;;18.41;100.00;62766.13;5092183;28;20196;-77
2022/06/11 04:20:59;;;;;;;17.73;12.20;;;;;;;18.18;100.00;62743.88;5092509;28;20281;-76
2022/06/11 04:23:29;;;;;;;16.50;12.27;;;;;;;18.23;100.00;62746.69;5092147;28;20210;-76
2022/06/11 04:25:57;;;;;;;22.37;11.87;;;;;;;18.04;100.00;62726.19;5092664;28;20394;-76
2022/06/11 04:28:26;;;;;;;14.17;11.33;;;;;;;18.23;100.00;62746.69;5091815;28;20252;-76
2022/06/11 04:30:54;;;;;;;16.60;11.43;;;;;;;17.31;100.00;62651.06;5096412;28;20211;-74
2022/06/11 04:33:21;;;;;;;14.50;12.00;;;;;;;18.00;100.00;62719.28;5092741;28;20211;-77
2022/06/11 04:35:48;;;;;;;15.57;11.73;;;;;;;17.95;100.00;62719.59;5091759;28;20203;-78
2022/06/11 04:38:16;;;;;;;15.20;10.77;;;;;;;18.43;100.00;62768.31;5091749;28;20261;-77
2022/06/11 04:40:43;;;;;;;13.93;10.80;;;;;;;18.09;100.00;62734.69;5090811;28;20203;-77
2022/06/11 04:43:10;;;;;;;13.20;10.27;;;;;;;18.49;100.00;62777.38;5096002;28;20241;-76
2022/06/11 04:45:39;;;;;;;12.70;10.00;;;;;;;18.68;100.00;62795.28;5103957;28;20213;-75
2022/06/11 04:48:06;;;;;;;11.40;9.53;;;;;;;18.49;100.00;62774.78;5094039;28;20196;-75
2022/06/11 04:50:35;;;;;;;10.23;8.70;;;;;;;18.24;100.00;62747.78;5092186;28;20205;-76
2022/06/11 04:53:03;;;;;;;9.67;8.13;;;;;;;18.58;100.00;62787.06;5091701;28;20642;-76
2022/06/11 04:55:30;;;;;;;9.67;8.10;;;;;;;18.60;100.00;62789.22;5091368;28;20205;-75
2022/06/11 04:57:58;;;;;;;12.00;8.60;;;;;;;18.67;100.00;62793.66;5091680;28;20203;-76
2022/06/11 05:00:28;;;;;;;9.83;8.00;;;;;;;18.85;100.00;62815.69;5091487;28;20291;-76
2022/06/11 05:02:57;;;;;;;10.70;8.97;;;;;;;18.71;100.00;62801.13;5091653;28;20688;-76
2022/06/11 05:05:25;;;;;;;10.03;8.30;;;;;;;18.84;100.00;62812.00;5091430;28;20207;-75
2022/06/11 05:07:53;;;;;;;9.17;7.40;;;;;;;18.94;100.00;62825.41;5091423;28;20204;-74
2022/06/11 05:10:23;;;;;;;8.47;7.03;;;;;;;18.86;100.00;62812.13;5092294;28;20208;-76
2022/06/11 05:12:50;;;;;;;9.50;7.70;;;;;;;18.94;100.00;62820.78;5094484;28;20227;-76
2022/06/11 05:15:18;;;;;;;9.33;7.13;;;;;;;18.73;100.00;62802.72;5095671;28;20282;-75
2022/06/11 05:17:46;;;;;;;8.07;6.40;;;;;;;18.18;100.00;62744.41;5095946;28;20203;-77
2022/06/11 05:20:16;;;;;;;6.97;6.03;;;;;;;18.89;100.00;62814.84;5095415;28;20236;-75
2022/06/11 05:22:45;;;;;;;6.80;6.10;;;;;;;18.69;100.00;62798.97;5096170;28;20207;-75
2022/06/11 05:25:13;;;;;;;8.80;5.53;;;;;;;18.48;100.00;62773.69;5095350;28;20644;-77
2022/06/11 05:27:42;;;;;;;7.53;5.93;;;;;;;19.12;100.00;62845.38;5095305;28;20207;-77
2022/06/11 05:30:15;;;;;;;6.93;5.50;;;;;;;19.10;100.00;62845.81;5077334;28;20670;-76
2022/06/11 05:32:43;;;;;;;7.83;5.57;;;;;;;19.11;100.00;62844.31;5095672;28;20219;-77
2022/06/11 05:35:18;;;;;;;6.83;5.00;;;;;;;19.32;100.00;62861.81;5095963;28;20206;-76
2022/06/11 05:37:46;;;;;;;7.00;5.10;;;;;;;19.46;100.00;62884.16;5096193;28;20233;-76
2022/06/11 05:40:16;;;;;;;5.80;4.40;;;;;;;19.45;100.00;62879.97;5094856;28;20215;-77
2022/06/11 05:42:47;;;;;;;4.90;4.50;;;;;;;19.44;100.00;62876.84;5095588;28;20321;-76
2022/06/11 05:45:16;;;;;;;5.17;4.60;;;;;;;19.26;100.00;62857.91;5094942;28;20257;-75
2022/06/11 05:47:43;;;;;;;5.83;4.50;;;;;;;18.99;100.00;62833.94;5095017;28;20624;-76
2022/06/11 05:50:14;;;;;;;6.40;4.83;;;;;;;19.17;100.00;62847.66;5094973;28;20198;-76
2022/06/11 05:52:45;;;;;;;4.73;3.83;;;;;;;19.18;100.00;62851.31;5095146;28;20610;-78
2022/06/11 05:55:15;;;;;;;5.47;4.20;;;;;;;19.22;100.00;62851.03;5094873;28;20237;-76
2022/06/11 05:57:43;;;;;;;3.83;3.53;;;;;;;19.29;100.00;62861.19;5094879;28;20195;-77
2022/06/11 06:00:19;;;;;;;6.87;4.60;;;;;;;19.28;100.00;62862.66;5095226;28;20202;-77
2022/06/11 06:02:47;;;;;;;4.40;3.40;;;;;;;19.48;100.00;62880.63;5077159;28;20206;-76
2022/06/11 06:05:19;;;;;;;4.03;3.27;;;;;;;19.13;100.00;62846.47;5076592;28;20689;-78
2022/06/11 06:07:48;;;;;;;3.87;3.47;;;;;;;19.29;100.00;62861.19;5094863;28;20227;-76
2022/06/11 06:10:15;;;;;;;5.77;3.23;;;;;;;19.33;100.00;62867.56;5094463;28;20262;-77
2022/06/11 06:12:42;;;;;;;3.70;3.40;;;;;;;19.38;100.00;62868.31;5094710;28;20318;-75
2022/06/11 06:15:14;;;;;;;5.07;3.90;;;;;;;19.46;100.00;62876.41;5094545;28;20202;-76
2022/06/11 06:17:42;;;;;;;3.73;3.33;;;;;;;19.14;100.00;62847.53;5094464;28;20654;-74
2022/06/11 06:20:13;;;;;;;3.77;3.17;;;;;;;19.47;100.00;62882.13;5094349;28;20199;-75
2022/06/11 06:22:41;;;;;;;5.80;3.20;;;;;;;19.29;100.00;62861.19;5094874;28;20234;-77
2022/06/11 06:25:13;;;;;;;4.20;3.80;;;;;;;19.34;100.00;62869.16;5094563;28;20204;-75
2022/06/11 06:27:40;;;;;;;5.00;3.60;;;;;;;19.33;100.00;62868.09;5094583;28;20204;-75
2022/06/11 06:30:08;;;;;;;4.33;3.63;;;;;;;19.31;100.00;62860.22;5094331;28;20212;-78
2022/06/11 06:32:36;;;;;;;5.90;4.33;;;;;;;18.64;100.00;62785.81;5094260;28;20284;-76
2022/06/11 06:35:04;;;;;;;4.43;4.03;;;;;;;19.45;100.00;62882.56;5095607;28;20571;-75
2022/06/11 06:37:33;;;;;;;5.50;4.20;;;;;;;19.11;100.00;62839.16;5094033;28;20224;-76
2022/06/11 06:40:00;;;;;;;5.90;4.87;;;;;;;19.51;100.00;62886.47;5093342;28;20230;-75
2022/06/11 06:42:28;;;;;;;5.33;4.53;;;;;;;19.64;100.00;62898.44;5093825;28;20211;-74
2022/06/11 06:44:59;;;;;;;6.50;4.60;;;;;;;19.50;100.00;62882.81;5094252;28;20210;-75
2022/06/11 06:47:28;;;;;;;5.67;4.90;;;;;;;19.71;100.00;62906.03;5093733;28;20215;-75
2022/06/11 06:49:55;;;;;;;6.07;4.60;;;;;;;19.81;100.00;62913.72;5093853;28;20211;-75
2022/06/11 06:52:22;;;;;;;6.10;5.00;;;;;;;19.61;100.00;62892.09;5093360;28;20231;-75
2022/06/11 06:54:49;;;;;;;5.77;4.60;;;;;;;19.80;100.00;62912.63;5093064;28;20207;-75
2022/06/11 06:57:18;;;;;;;4.93;4.33;;;;;;;19.64;100.00;62897.94;5092781;28;20199;-75
2022/06/11 06:59:47;;;;;;;5.47;4.60;;;;;;;19.73;100.00;62907.66;5092715;28;20204;-74
2022/06/11 07:02:14;;;;;;;8.70;4.67;;;;;;;19.59;100.00;62889.94;5092735;28;20286;-75
2022/06/11 07:04:41;;;;;;;5.50;4.73;;;;;;;19.50;100.00;62880.22;5092657;28;20210;-74
2022/06/11 07:07:14;;;;;;;7.57;4.90;;;;;;;19.05;100.00;62837.84;5093043;28;20207;-75
2022/06/11 07:09:40;;;;;;;7.70;6.17;;;;;;;19.34;100.00;62866.03;5092808;28;20196;-76
2022/06/11 07:12:08;;;;;;;7.00;5.93;;;;;;;20.09;100.00;62949.16;5092605;28;20644;-75
2022/06/11 07:14:37;;;;;;;6.37;5.70;;;;;;;19.92;100.00;62925.59;5092252;28;20211;-75
2022/06/11 07:17:09;;;;;;;6.77;5.10;;;;;;;20.17;100.00;62955.19;5092230;28;20670;-74
2022/06/11 07:19:40;;;;;;;5.60;4.40;;;;;;;20.24;100.00;62964.84;5092196;28;20215;-74
2022/06/11 07:22:11;;;;;;;4.50;4.00;;;;;;;19.75;100.00;62912.38;5092558;28;20215;-74
2022/06/11 07:24:41;;;;;;;4.73;4.03;;;;;;;19.93;100.00;62929.25;5092212;28;20198;-75
2022/06/11 07:27:13;;;;;;;5.37;3.87;;;;;;;19.73;100.00;62910.22;5092041;28;20583;-75
2022/06/11 07:29:45;;;;;;;4.53;3.70;;;;;;;19.85;100.00;62923.19;5076344;28;20222;-75
2022/06/11 07:32:17;;;;;;;3.93;3.63;;;;;;;19.65;100.00;62899.00;5092271;28;20231;-74
2022/06/11 07:34:45;;;;;;;5.30;4.10;;;;;;;19.65;100.00;62899.00;5091636;28;20199;-74
2022/06/11 07:37:13;;;;;;;10.03;3.60;;;;;;;20.11;100.00;62948.72;5092259;28;20231;-75
2022/06/11 07:39:40;;;;;;;6.97;4.30;;;;;;;20.26;100.00;62967.56;5090826;28;20225;-76
2022/06/11 07:42:08;;;;;;;5.70;4.30;;;;;;;20.12;100.00;62949.81;5091566;28;20269;-76
2022/06/11 07:44:36;;;;;;;5.87;3.80;;;;;;;20.21;100.00;62959.56;5091776;28;20708;-75
2022/06/11 07:47:03;;;;;;;3.90;3.47;;;;;;;20.44;100.00;62986.47;5092047;28;20223;-74
2022/06/11 07:49:32;;;;;;;5.87;4.20;;;;;;;19.95;100.00;62931.41;5091764;28;20217;-76
2022/06/11 07:52:00;;;;;;;6.67;3.80;;;;;;;20.73;100.00;63017.81;5091644;28;20678;-76
2022/06/11 07:54:27;;;;;;;5.27;4.13;;;;;;;20.95;100.00;63037.00;5091337;28;20212;-74
2022/06/11 07:56:54;;;;;;;4.17;3.77;;;;;;;21.14;100.00;63062.22;5091601;28;20253;-76
2022/06/11 07:59:21;;;;;;;5.60;3.90;;;;;;;21.52;100.00;63098.16;5072693;28;20269;-74
2022/06/11 08:01:48;;;;;;;4.93;3.97;;;;;;;21.61;100.00;63118.25;5091648;28;20207;-75
2022/06/11 08:04:14;;;;;;;5.97;3.70;;;;;;;21.75;100.00;63122.53;5091521;28;20231;-74
2022/06/11 08:06:43;;;;;;;4.30;3.90;;;;;;;22.19;100.00;63172.78;5091254;28;20203;-77
2022/06/11 08:09:10;;;;;;;4.83;4.07;;;;;;;22.56;100.00;63212.31;5089760;28;20203;-73
2022/06/11 08:11:37;;;;;;;7.17;3.80;;;;;;;22.51;100.00;63210.03;5091707;28;20208;-74
2022/06/11 08:14:04;;;;;;;4.00;3.53;;;;;;;22.62;100.00;63214.19;5090599;28;20230;-77
2022/06/11 08:16:31;;;;;;;6.50;4.00;;;;;;;22.81;100.00;63241.47;5090443;28;20674;-75
2022/06/11 08:18:58;;;;;;;7.03;4.43;;;;;;;22.81;100.00;63236.84;5091179;28;20196;-75
2022/06/11 08:21:25;;;;;;;4.57;4.00;;;;;;;23.28;100.00;63287.25;5090323;28;20689;-75
2022/06/11 08:23:53;;;;;;;5.50;4.70;;;;;;;23.72;100.00;63337.56;5089921;28;20210;-74
2022/06/11 08:26:20;;;;;;;6.80;3.87;;;;;;;23.84;100.00;63353.19;5090107;28;20609;-74
2022/06/11 08:28:47;;;;;;;5.13;4.20;;;;;;;23.83;100.00;63346.88;5089094;28;20208;-74
2022/06/11 08:31:14;;;;;;;8.63;4.63;;;;;;;23.61;100.00;63323.03;5089370;28;20206;-74
2022/06/11 08:33:41;;;;;;;4.87;4.33;;;;;;;22.62;100.00;63216.78;5089222;28;20219;-74
2022/06/11 08:36:08;;;;;;;7.83;4.10;;;;;;;23.26;100.00;63285.59;5089759;28;20265;-75
2022/06/11 08:38:35;;;;;;;4.93;4.50;;;;;;;23.32;100.00;63297.31;5090608;28;20203;-74
2022/06/11 08:41:09;;;;;;;5.57;4.40;;;;;;;23.96;100.00;63361.00;5088828;28;20202;-74
2022/06/11 08:43:38;;;;;;;4.80;3.97;;;;;;;24.49;100.00;63417.97;5090393;28;20701;-74
2022/06/11 08:46:13;;;;;;;4.67;3.80;;;;;;;24.45;100.00;63418.31;5090539;28;20206;-76
2022/06/11 08:48:47;;;;;;;3.30;3.00;;;;;;;23.89;100.00;63356.00;5073314;28;20243;-74
2022/06/11 08:51:20;;;;;;;3.70;3.40;;;;;;;23.54;100.00;63318.06;5091773;28;20283;-75
2022/06/11 08:53:49;;;;;;;4.87;3.83;;;;;;;23.73;100.00;63338.66;5091988;28;20305;-73
2022/06/11 08:56:26;;;;;;;3.80;3.50;;;;;;;23.32;100.00;63294.72;5091451;28;20200;-75
2022/06/11 08:59:23;;;;;;;3.57;3.27;;;;;;;23.90;100.00;63357.09;5091672;28;20214;-74
2022/06/11 09:02:00;;;;;;;3.87;3.50;;;;;;;24.01;100.00;63371.63;5091434;28;20662;-76
2022/06/11 09:04:42;;;;;;;4.00;3.63;;;;;;;24.31;100.00;63398.97;5092548;28;20207;-75
2022/06/11 09:07:23;;;;;;;4.13;3.70;;;;;;;24.38;100.00;63405.50;5094213;28;20257;-74
2022/06/11 09:10:03;;;;;;;3.37;3.07;;;;;;;24.50;100.00;63418.53;5079771;28;20226;-74
2022/06/11 09:12:51;;;;;;;4.10;2.90;;;;;;;24.88;100.00;63462.94;5092198;28;20232;-75
2022/06/11 09:15:28;;;;;;;3.17;2.90;;;;;;;24.00;100.00;63370.53;5091268;28;20195;-74
2022/06/11 09:18:13;;;;;;;4.90;3.47;;;;;;;23.91;100.00;63358.16;5091615;28;20199;-75
2022/06/11 09:20:52;;;;;;;3.87;3.37;;;;;;;23.87;100.00;63356.44;5091292;28;20677;-75
2022/06/11 09:23:50;;;;;;;4.83;3.47;;;;;;;23.29;100.00;63293.50;5091254;28;20754;-75
2022/06/11 09:26:29;;;;;;;5.27;4.30;;;;;;;23.38;100.00;63298.63;5084535;28;20198;-75
2022/06/11 09:29:11;;;;;;;11.60;7.37;;;;;;;23.64;100.00;63326.28;5090936;28;20205;-74
2022/06/11 09:31:45;;;;;;;5.20;4.57;;;;;;;23.46;100.00;63311.97;5091317;28;20214;-73
2022/06/11 09:34:14;;;;;;;6.83;4.53;;;;;;;23.45;100.00;63311.44;5090974;28;20227;-74
2022/06/11 09:36:45;;;;;;;8.10;4.63;;;;;;;23.72;100.00;63337.56;5091224;28;20231;-74
2022/06/11 09:39:27;;;;;;;4.03;3.63;;;;;;;23.23;100.00;63281.81;5089966;28;20192;-76
2022/06/11 09:42:12;;;;;;;4.60;3.33;;;;;;;23.20;100.00;63283.78;5091418;28;20265;-73
2022/06/11 09:44:47;;;;;;;3.67;3.30;;;;;;;23.19;100.00;63280.06;5091024;28;20265;-74
2022/06/11 09:47:22;;;;;;;4.27;3.47;;;;;;;23.07;100.00;63264.47;5091252;28;20287;-75
2022/06/11 09:50:02;;;;;;;7.27;3.43;;;;;;;22.95;100.00;63256.66;5090959;28;20226;-74
2022/06/11 09:52:40;;;;;;;4.27;3.23;;;;;;;22.77;100.00;63237.16;5091089;28;20204;-75
2022/06/11 09:55:22;;;;;;;4.10;3.70;;;;;;;22.87;100.00;63242.78;5091267;28;20199;-75
2022/06/11 09:58:02;;;;;;;5.03;4.20;;;;;;;22.58;100.00;63212.44;5074377;28;20727;-76
2022/06/11 10:00:34;;;;;;;4.30;3.73;;;;;;;23.02;100.00;63259.06;5094954;28;20625;-75
2022/06/11 10:03:16;;;;;;;4.30;3.90;;;;;;;22.59;100.00;63218.19;5095016;28;20207;-75
2022/06/11 10:05:48;;;;;;;4.33;3.93;;;;;;;22.68;100.00;63227.94;5094845;28;20203;-75
2022/06/11 10:08:21;;;;;;;4.80;4.30;;;;;;;22.82;100.00;63239.97;5094717;28;20548;-75
2022/06/11 10:10:51;;;;;;;6.83;5.27;;;;;;;22.58;100.00;63214.50;5095142;28;20277;-74
2022/06/11 10:13:34;;;;;;;5.40;3.70;;;;;;;22.66;100.00;63223.16;5094420;28;20306;-74
2022/06/11 10:16:10;;;;;;;4.00;3.40;;;;;;;22.66;100.00;63226.31;5094685;28;20230;-74
2022/06/11 10:18:38;;;;;;;3.70;3.40;;;;;;;22.55;100.00;63214.38;5094419;28;20203;-74
2022/06/11 10:21:11;;;;;;;7.07;3.57;;;;;;;22.12;100.00;63165.19;5094393;28;20654;-74
2022/06/11 10:23:43;;;;;;;4.73;4.07;;;;;;;22.27;100.00;63180.91;5094414;28;20210;-74
2022/06/11 10:26:15;;;;;;;9.23;4.77;;;;;;;21.97;100.00;63151.56;5094680;28;20211;-76
2022/06/11 10:28:50;;;;;;;4.17;3.70;;;;;;;21.96;100.00;63147.88;5094327;28;20207;-77
2022/06/11 10:31:21;;;;;;;4.47;4.07;;;;;;;21.69;100.00;63116.56;5094237;28;20199;-75
2022/06/11 10:33:54;;;;;;;3.47;3.17;;;;;;;20.80;100.00;63020.78;5094014;28;20342;-76
2022/06/11 10:36:25;;;;;;;8.30;3.87;;;;;;;19.82;100.00;62925.66;5093997;28;20611;-77
2022/06/11 10:38:57;;;;;;;10.77;3.90;;;;;;;19.93;100.00;62934.97;5094267;28;20248;-74
2022/06/11 10:41:31;;;;;;;5.43;3.10;;;;;;;19.02;100.00;62834.59;5094808;28;20206;-75
2022/06/11 10:44:12;;;;;;;5.53;3.47;;;;;;;18.95;100.00;62819.28;5093959;28;20656;-75
2022/06/11 10:46:41;;;;;;;5.40;3.20;;;;;;;18.07;100.00;62724.28;5094324;28;20200;-75
2022/06/11 10:49:14;;;;;;;3.93;3.13;;;;;;;17.93;100.00;62719.47;5093986;28;20210;-74
2022/06/11 10:51:44;;;;;;;5.07;3.50;;;;;;;18.13;100.00;62738.50;5093844;28;20575;-76
2022/06/11 10:54:18;;;;;;;4.53;3.33;;;;;;;18.36;100.00;62763.31;5094056;28;20227;-77
2022/06/11 10:56:50;;;;;;;6.57;3.77;;;;;;;18.48;100.00;62771.13;5093961;28;20226;-76
2022/06/11 10:59:24;;;;;;;5.63;3.40;;;;;;;18.47;100.00;62775.22;5093638;28;20227;-76
2022/06/11 11:02:00;;;;;;;4.00;3.60;;;;;;;18.71;100.00;62798.53;5093498;28;20277;-76
2022/06/11 11:04:37;;;;;;;4.23;3.70;;;;;;;18.70;100.00;62797.44;5093746;28;20195;-76
2022/06/11 11:07:21;;;;;;;8.10;3.83;;;;;;;18.99;100.00;62831.34;5093394;28;20203;-75
2022/06/11 11:09:49;;;;;;;4.57;3.87;;;;;;;18.25;100.00;62751.44;5092536;28;20202;-75
2022/06/11 11:12:24;;;;;;;6.93;4.30;;;;;;;19.34;100.00;62864.00;5093176;28;20196;-77
2022/06/11 11:15:02;;;;;;;6.93;4.90;;;;;;;19.58;100.00;62894.56;5093664;28;20231;-75
2022/06/11 11:17:45;;;;;;;4.90;4.00;;;;;;;19.65;100.00;62896.41;5093657;28;20238;-76
2022/06/11 11:20:34;;;;;;;6.27;4.00;;;;;;;19.77;100.00;62911.97;5093322;28;20652;-77
2022/06/11 11:23:07;;;;;;;7.30;4.47;;;;;;;19.46;100.00;62881.06;5093152;28;20207;-76
2022/06/11 11:25:42;;;;;;;7.70;5.07;;;;;;;19.83;100.00;62921.03;5093189;28;20218;-75
2022/06/11 11:28:20;;;;;;;7.97;4.23;;;;;;;19.96;100.00;62937.69;5092725;28;20199;-76
2022/06/11 11:30:55;;;;;;;6.10;4.53;;;;;;;19.95;100.00;62931.97;5093038;28;20599;-77
2022/06/11 11:33:27;;;;;;;6.93;5.10;;;;;;;20.01;100.00;62940.50;5092637;28;20235;-75
2022/06/11 11:36:18;;;;;;;6.57;5.13;;;;;;;20.17;100.00;62953.16;5092907;28;20210;-75
2022/06/11 11:38:46;;;;;;;8.93;5.60;;;;;;;20.28;100.00;62966.59;5088496;28;20199;-77
2022/06/11 11:41:25;;;;;;;7.43;5.67;;;;;;;20.34;100.00;62975.66;5091002;28;20203;-76
2022/06/11 11:43:57;;;;;;;7.43;5.63;;;;;;;20.28;100.00;62966.59;5092809;28;20726;-76
2022/06/11 11:46:26;;;;;;;9.40;5.57;;;;;;;20.34;100.00;62976.22;5092943;28;20211;-76
2022/06/11 11:48:56;;;;;;;6.83;5.00;;;;;;;20.28;100.00;62969.72;5093096;28;20257;-75